Terminal Aerodrome Forecast
Issued by NWS

Home | Current Version | Previous Version | Text Only | Print | Product List | Glossary On
Versions: 1 2 3 4 5 6 7 8 9 10 11 12 13 14 15 16 17
000
FTUS43 KBIS 190300 AAA
TAFJMS
TAF AMD
KJMS 190306Z 1903/1924 25011KT P6SM VCSH OVC080
     FM190500 30010KT P6SM -SHRA OVC060
     FM190800 33016G24KT P6SM -SHRA OVC050
     FM191100 33019G28KT P6SM OVC045
     FM192000 33022G32KT P6SM VCSH OVC060=

USA.gov is the U.S. government's official web portal to all federal, state and local government web resources and services.